Time;durP1;ratioP1;P1;durP2;ratioP2;P2;SDS_P1;SDS_P2;PMS_P1;PMS_P2;Temp;Humidity;BMP_temperature;BMP_pressure;BME280_temperature;BME280_humidity;BME280_pressure;Samples;Min_cycle;Max_cycle;Signal;HPM_P1;HPM_P2
2022/07/01 00:02:09;;;;;;;3.13;2.87;;;;;;;17.41;100.00;98842.13;5030570;28;20194;-78
2022/07/01 00:04:47;;;;;;;4.53;3.10;;;;;;;17.35;100.00;98850.72;5029096;28;20201;-78
2022/07/01 00:07:16;;;;;;;3.27;2.80;;;;;;;17.29;100.00;98870.94;5029135;28;20278;-78
2022/07/01 00:09:44;;;;;;;3.00;2.70;;;;;;;17.17;100.00;98882.78;5028489;28;20205;-78
2022/07/01 00:12:12;;;;;;;3.90;2.97;;;;;;;17.24;100.00;98883.91;5024221;28;20201;-78
2022/07/01 00:14:41;;;;;;;2.73;2.50;;;;;;;17.32;100.00;98888.53;5028986;28;20196;-78
2022/07/01 00:17:10;;;;;;;2.90;2.60;;;;;;;17.28;100.00;98892.50;5029409;28;20679;-78
2022/07/01 00:19:38;;;;;;;2.87;2.30;;;;;;;17.07;100.00;98879.31;5029867;28;20634;-78
2022/07/01 00:22:09;;;;;;;3.03;2.83;;;;;;;17.28;100.00;98895.19;5032420;28;20194;-78
2022/07/01 00:24:37;;;;;;;4.10;3.73;;;;;;;17.41;100.00;98906.38;5031042;28;20277;-78
2022/07/01 00:27:06;;;;;;;4.77;3.60;;;;;;;17.27;100.00;98906.84;5035929;28;20229;-78
2022/07/01 00:29:34;;;;;;;4.03;3.27;;;;;;;17.25;100.00;98920.38;5030229;28;20206;-78
2022/07/01 00:32:03;;;;;;;4.13;3.83;;;;;;;17.34;100.00;98919.50;5036422;28;20299;-78
2022/07/01 00:34:31;;;;;;;5.73;4.20;;;;;;;17.35;100.00;98923.88;5032563;28;20202;-78
2022/07/01 00:37:00;;;;;;;4.50;4.10;;;;;;;17.40;100.00;98932.31;5031027;28;20205;-78
2022/07/01 00:39:31;;;;;;;4.60;4.20;;;;;;;17.34;100.00;98937.41;5033206;28;20198;-78
2022/07/01 00:42:01;;;;;;;4.67;4.00;;;;;;;17.08;100.00;98938.06;5030429;28;20197;-78
2022/07/01 00:44:29;;;;;;;4.90;4.40;;;;;;;17.30;100.00;98944.06;5030438;28;20287;-78
2022/07/01 00:47:01;;;;;;;4.23;3.87;;;;;;;17.04;100.00;98938.47;5033537;28;20226;-78
2022/07/01 00:49:30;;;;;;;4.37;3.97;;;;;;;17.08;100.00;98956.78;5011053;28;20244;-78
2022/07/01 00:51:59;;;;;;;4.30;3.90;;;;;;;16.96;100.00;98951.72;5012695;28;20210;-78
2022/07/01 00:54:31;;;;;;;4.20;3.80;;;;;;;17.21;100.00;98950.28;4951924;28;20203;-79
2022/07/01 00:57:00;;;;;;;4.20;3.90;;;;;;;17.29;100.00;98934.34;4951519;28;20200;-78
2022/07/01 00:59:31;;;;;;;3.37;3.07;;;;;;;17.28;100.00;98943.34;4950768;28;20205;-78
2022/07/01 01:01:59;;;;;;;3.77;3.47;;;;;;;16.88;100.00;98934.56;4951725;28;20208;-78
2022/07/01 01:04:27;;;;;;;3.17;2.87;;;;;;;16.83;100.00;98927.97;4948196;28;20208;-78
2022/07/01 01:06:57;;;;;;;3.10;2.80;;;;;;;16.94;100.00;98921.59;4946791;28;20217;-78
2022/07/01 01:09:25;;;;;;;3.30;3.00;;;;;;;17.01;100.00;98923.56;4959436;28;20212;-78
2022/07/01 01:11:57;;;;;;;3.13;2.83;;;;;;;17.07;100.00;98922.97;4959056;28;20244;-78
2022/07/01 01:14:26;;;;;;;3.10;2.90;;;;;;;17.00;100.00;98929.91;5011711;28;20402;-78
2022/07/01 01:16:55;;;;;;;3.50;3.03;;;;;;;16.75;100.00;98925.16;5011901;28;20202;-78
2022/07/01 01:19:23;;;;;;;2.90;2.70;;;;;;;16.90;100.00;98937.13;5009874;28;20255;-78
2022/07/01 01:21:54;;;;;;;2.90;2.70;;;;;;;16.80;100.00;98934.47;5008953;28;20206;-79
2022/07/01 01:24:22;;;;;;;2.93;2.73;;;;;;;16.81;100.00;98943.31;5011444;28;20198;-78
2022/07/01 01:26:50;;;;;;;3.20;2.93;;;;;;;16.83;100.00;98942.19;5013170;28;20735;-78
2022/07/01 01:29:18;;;;;;;3.03;2.67;;;;;;;16.78;100.00;98954.28;5016167;27;20210;-79
2022/07/01 01:31:47;;;;;;;3.10;2.80;;;;;;;16.81;100.00;98952.19;5011203;28;20277;-78
2022/07/01 01:34:15;;;;;;;3.07;2.87;;;;;;;16.76;100.00;98957.09;5011911;28;20213;-79
2022/07/01 01:36:43;;;;;;;2.67;2.47;;;;;;;16.81;100.00;98959.38;5011467;28;20201;-77
2022/07/01 01:39:13;;;;;;;2.60;2.40;;;;;;;16.43;100.00;98974.41;5011357;28;20198;-78
2022/07/01 01:41:41;;;;;;;2.50;2.30;;;;;;;16.57;100.00;98973.97;5010557;28;20640;-79
2022/07/01 01:44:10;;;;;;;2.83;2.63;;;;;;;16.65;100.00;98975.94;5012201;28;20214;-79
2022/07/01 01:46:38;;;;;;;3.00;2.70;;;;;;;16.60;100.00;98981.75;5011178;28;20214;-78
2022/07/01 01:49:07;;;;;;;3.20;2.90;;;;;;;16.61;100.00;98998.63;5035626;27;20230;-78
2022/07/01 01:51:36;;;;;;;3.07;2.77;;;;;;;16.69;100.00;98997.94;5029683;28;20206;-79
2022/07/01 01:54:05;;;;;;;3.20;2.90;;;;;;;16.65;100.00;98996.50;5033960;28;20204;-79
2022/07/01 01:56:35;;;;;;;3.37;3.07;;;;;;;16.44;100.00;98999.31;5026962;28;20285;-79
2022/07/01 01:59:04;;;;;;;3.53;3.23;;;;;;;16.43;100.00;99002.97;5044762;27;20262;-78
2022/07/01 02:01:32;;;;;;;3.63;3.33;;;;;;;16.25;100.00;99018.84;5029051;28;20190;-78
2022/07/01 02:04:01;;;;;;;3.50;3.20;;;;;;;16.30;100.00;99014.75;5031209;28;20204;-78
2022/07/01 02:06:29;;;;;;;4.13;3.80;;;;;;;16.37;100.00;99006.19;5030719;28;20205;-79
2022/07/01 02:08:57;;;;;;;4.40;4.00;;;;;;;16.43;100.00;99021.69;5030851;28;20217;-79
2022/07/01 02:11:27;;;;;;;4.63;4.23;;;;;;;16.36;100.00;99028.56;5029703;28;20194;-80
2022/07/01 02:13:57;;;;;;;5.23;4.73;;;;;;;16.23;100.00;99036.84;5032467;28;20190;-78
2022/07/01 02:16:25;;;;;;;5.03;4.60;;;;;;;16.17;100.00;99045.41;5031148;28;20350;-79
2022/07/01 02:18:54;;;;;;;5.90;5.37;;;;;;;16.09;100.00;99048.75;5024047;28;20273;-79
2022/07/01 02:21:22;;;;;;;8.13;6.03;;;;;;;15.95;100.00;99060.66;5030153;28;20209;-79
2022/07/01 02:23:52;;;;;;;6.70;6.00;;;;;;;15.85;100.00;99069.63;5034617;28;20205;-79
2022/07/01 02:26:20;;;;;;;7.20;5.87;;;;;;;15.89;100.00;99068.34;5029542;28;20213;-78
2022/07/01 02:28:48;;;;;;;8.17;6.33;;;;;;;15.95;100.00;99076.69;5030313;28;20221;-80
2022/07/01 02:31:18;;;;;;;7.23;5.80;;;;;;;15.89;100.00;99071.03;5030319;28;20205;-79
2022/07/01 02:33:46;;;;;;;6.33;5.73;;;;;;;15.80;100.00;99063.81;5033047;28;20194;-79
2022/07/01 02:36:14;;;;;;;7.67;6.03;;;;;;;15.92;100.00;99057.38;5035198;27;20656;-79
2022/07/01 02:38:43;;;;;;;10.13;5.33;;;;;;;15.84;100.00;99057.25;5030183;28;20225;-78
2022/07/01 02:41:11;;;;;;;6.80;5.67;;;;;;;15.75;100.00;99050.88;5026031;28;20664;-78
2022/07/01 02:43:39;;;;;;;8.17;6.20;;;;;;;15.73;100.00;99055.50;5029984;28;20283;-78
2022/07/01 02:46:07;;;;;;;7.93;6.23;;;;;;;15.66;100.00;99057.84;5030353;28;20201;-78
2022/07/01 02:48:37;;;;;;;7.93;6.53;;;;;;;15.69;100.00;99052.25;5025320;28;20383;-78
2022/07/01 02:51:05;;;;;;;9.10;6.83;;;;;;;15.77;100.00;99058.75;5042044;27;20580;-79
2022/07/01 02:53:34;;;;;;;6.93;6.10;;;;;;;15.67;100.00;99064.03;5029839;28;20194;-79
2022/07/01 02:56:02;;;;;;;7.37;6.17;;;;;;;15.58;100.00;99062.13;5021666;28;20201;-79
2022/07/01 02:58:30;;;;;;;7.50;6.10;;;;;;;15.53;100.00;99053.66;5030029;28;20276;-80
2022/07/01 03:00:59;;;;;;;7.53;6.03;;;;;;;15.55;100.00;99055.25;5033395;28;20206;-79
2022/07/01 03:03:27;;;;;;;8.07;5.80;;;;;;;15.55;100.00;99043.72;5036301;27;20205;-79
2022/07/01 03:05:57;;;;;;;7.40;5.77;;;;;;;15.44;100.00;99058.84;5027843;28;20226;-79
2022/07/01 03:08:25;;;;;;;10.50;6.40;;;;;;;15.48;100.00;99050.56;5035877;28;20222;-79
2022/07/01 03:10:54;;;;;;;7.57;6.17;;;;;;;15.40;100.00;99048.53;5028384;28;20198;-79
2022/07/01 03:13:22;;;;;;;8.77;6.60;;;;;;;15.44;100.00;99037.47;5026883;28;20699;-79
2022/07/01 03:15:50;;;;;;;7.63;6.40;;;;;;;15.43;100.00;99030.41;5025217;28;20198;-79
2022/07/01 03:18:18;;;;;;;9.47;7.30;;;;;;;15.44;100.00;99028.59;5029516;28;20205;-79
2022/07/01 03:20:49;;;;;;;9.17;7.40;;;;;;;15.47;100.00;99036.38;5029542;28;20269;-79
2022/07/01 03:23:18;;;;;;;8.77;7.30;;;;;;;15.40;100.00;99043.19;5026145;28;20209;-78
2022/07/01 03:25:47;;;;;;;11.00;7.97;;;;;;;15.32;100.00;99051.00;5028542;28;20281;-79
2022/07/01 03:28:17;;;;;;;8.10;7.00;;;;;;;15.34;100.00;99043.72;5025831;28;20221;-78
2022/07/01 03:30:45;;;;;;;7.80;6.50;;;;;;;15.24;100.00;99035.63;5029118;28;20194;-78
2022/07/01 03:33:13;;;;;;;8.40;6.30;;;;;;;15.15;100.00;99039.97;5025524;28;20257;-78
2022/07/01 03:35:45;;;;;;;9.73;5.97;;;;;;;15.27;100.00;99048.75;5028444;28;20197;-78
2022/07/01 03:38:14;;;;;;;8.20;5.60;;;;;;;15.11;100.00;99046.53;5028140;28;20190;-78
2022/07/01 03:40:43;;;;;;;7.80;6.17;;;;;;;15.01;100.00;99052.75;5032489;28;20277;-78
2022/07/01 03:43:12;;;;;;;6.97;5.70;;;;;;;15.17;100.00;99039.84;5011393;28;20201;-78
2022/07/01 03:45:45;;;;;;;6.43;5.23;;;;;;;15.33;100.00;99045.53;5025070;28;20235;-78
2022/07/01 03:48:13;;;;;;;7.33;5.60;;;;;;;15.29;100.00;99043.28;5031443;28;20230;-78
2022/07/01 03:50:41;;;;;;;7.80;5.67;;;;;;;15.22;100.00;99042.94;5029636;28;20201;-78
2022/07/01 03:55:57;;;;;;;8.10;5.80;;;;;;;15.28;100.00;99041.59;5037639;27;20205;-79
2022/07/01 03:58:25;;;;;;;8.07;5.63;;;;;;;15.39;100.00;99046.84;5035050;28;20284;-78
2022/07/01 04:00:53;;;;;;;7.33;5.40;;;;;;;15.33;100.00;99045.53;5083053;28;20193;-78
2022/07/01 04:03:22;;;;;;;6.57;4.93;;;;;;;15.34;100.00;99047.22;5027500;28;20597;-79
2022/07/01 04:05:50;;;;;;;6.13;4.53;;;;;;;15.27;100.00;99043.41;5036223;28;20221;-78
2022/07/01 04:08:19;;;;;;;5.73;4.47;;;;;;;15.26;100.00;99043.53;5032793;28;20218;-78
2022/07/01 04:10:48;;;;;;;4.77;4.03;;;;;;;15.20;100.00;99047.56;5029018;28;20201;-79
2022/07/01 04:13:17;;;;;;;5.30;4.20;;;;;;;15.17;100.00;99051.34;5031176;28;20274;-78
2022/07/01 04:16:01;;;;;;;4.93;3.77;;;;;;;15.14;100.00;99037.41;5032198;28;20212;-79
2022/07/01 04:18:30;;;;;;;5.90;4.30;;;;;;;15.19;100.00;99045.88;5029833;28;20277;-78
2022/07/01 04:23:46;;;;;;;4.60;4.20;;;;;;;15.26;100.00;99052.41;5032233;28;20201;-78
2022/07/01 04:26:15;;;;;;;6.40;4.50;;;;;;;15.35;100.00;99054.28;5025134;28;20197;-78
2022/07/01 04:29:05;;;;;;;4.70;3.97;;;;;;;15.33;100.00;99060.69;5031990;28;20267;-78
2022/07/01 04:31:34;;;;;;;4.83;3.77;;;;;;;15.27;100.00;99051.41;5032063;28;20193;-78
2022/07/01 04:34:02;;;;;;;3.63;3.33;;;;;;;15.34;100.00;99052.56;5027535;28;20217;-78
2022/07/01 04:36:30;;;;;;;4.67;3.63;;;;;;;15.25;100.00;99057.84;5032004;28;20194;-78
2022/07/01 04:38:59;;;;;;;4.83;3.77;;;;;;;15.34;100.00;99062.38;5029943;28;20198;-78
2022/07/01 04:44:16;;;;;;;4.00;3.60;;;;;;;15.45;100.00;99081.03;5031953;28;20228;-78
2022/07/01 04:46:44;;;;;;;3.87;3.40;;;;;;;15.40;100.00;99086.75;5030861;28;20279;-78
2022/07/01 04:49:13;;;;;;;4.30;3.60;;;;;;;15.43;100.00;99091.81;5031778;28;20312;-78
2022/07/01 04:51:41;;;;;;;3.70;3.37;;;;;;;15.40;100.00;99093.91;5031587;28;20193;-78
2022/07/01 04:54:10;;;;;;;3.90;3.40;;;;;;;15.36;100.00;99098.69;5036635;28;20210;-78
2022/07/01 04:56:39;;;;;;;4.03;3.20;;;;;;;15.44;100.00;99096.19;5030780;28;20250;-78
2022/07/01 04:59:11;;;;;;;3.30;3.00;;;;;;;15.50;100.00;99100.16;5031951;28;20219;-79
2022/07/01 05:01:41;;;;;;;3.43;3.10;;;;;;;15.56;100.00;99086.28;5031835;28;20209;-78
2022/07/01 05:04:11;;;;;;;3.27;2.70;;;;;;;15.52;100.00;99089.34;5032396;28;20201;-78
2022/07/01 05:06:39;;;;;;;3.40;2.93;;;;;;;15.67;100.00;99078.22;5029989;28;20247;-79
2022/07/01 05:09:09;;;;;;;3.27;2.50;;;;;;;15.72;100.00;99085.84;5031355;28;20293;-78
2022/07/01 05:11:38;;;;;;;3.00;2.70;;;;;;;15.82;100.00;99101.91;5030060;28;20221;-78
2022/07/01 05:14:07;;;;;;;2.70;2.43;;;;;;;15.89;100.00;99105.75;5026745;28;20201;-78
2022/07/01 05:16:36;;;;;;;3.07;2.70;;;;;;;15.71;100.00;99092.16;5031190;28;20205;-78
2022/07/01 05:21:58;;;;;;;2.63;2.43;;;;;;;15.85;100.00;99145.25;5031695;28;20277;-79
2022/07/01 05:24:28;;;;;;;3.10;2.80;;;;;;;15.69;100.00;99155.53;5030684;28;20204;-78
2022/07/01 05:26:57;;;;;;;3.70;2.50;;;;;;;15.59;100.00;99150.09;5030011;28;20208;-78
2022/07/01 05:29:26;;;;;;;4.37;2.83;;;;;;;15.70;100.00;99152.72;5031102;28;20285;-78
2022/07/01 05:31:54;;;;;;;3.60;2.90;;;;;;;15.79;100.00;99148.44;5028665;28;20204;-78
2022/07/01 05:34:24;;;;;;;3.33;2.63;;;;;;;15.87;100.00;99145.09;5028628;28;20202;-78
2022/07/01 05:36:53;;;;;;;3.07;2.80;;;;;;;16.01;100.00;99139.41;5027384;28;20220;-79
2022/07/01 05:39:22;;;;;;;3.30;3.00;;;;;;;15.79;100.00;99144.91;5024457;28;20209;-78
2022/07/01 05:41:50;;;;;;;3.43;2.90;;;;;;;16.00;100.00;99170.63;5034815;28;20205;-78
2022/07/01 05:44:18;;;;;;;3.77;3.10;;;;;;;15.85;100.00;99171.13;5031302;28;20272;-78
2022/07/01 05:46:47;;;;;;;3.83;3.43;;;;;;;15.97;100.00;99173.56;5026397;28;20660;-78
2022/07/01 05:49:15;;;;;;;3.33;3.03;;;;;;;16.11;100.00;99160.84;5034404;28;20226;-78
2022/07/01 05:51:46;;;;;;;3.90;3.50;;;;;;;15.79;100.00;99166.28;5034223;27;20258;-78
2022/07/01 05:54:15;;;;;;;2.90;2.70;;;;;;;16.05;100.00;99161.38;5028702;28;20198;-78
2022/07/01 05:56:43;;;;;;;3.47;2.97;;;;;;;16.01;100.00;99163.44;5029508;28;20293;-78
2022/07/01 05:59:11;;;;;;;3.40;3.00;;;;;;;16.19;100.00;99153.00;5024556;28;20695;-78
2022/07/01 06:01:40;;;;;;;3.27;2.97;;;;;;;16.21;100.00;99151.03;5032028;28;20202;-78
2022/07/01 06:04:08;;;;;;;3.40;3.00;;;;;;;16.38;100.00;99147.72;5030534;28;20656;-78
2022/07/01 06:06:36;;;;;;;2.70;2.50;;;;;;;16.27;100.00;99137.97;5030707;28;20194;-78
2022/07/01 06:09:06;;;;;;;3.50;2.33;;;;;;;16.36;100.00;99135.50;5030803;28;20213;-78
2022/07/01 06:11:34;;;;;;;2.57;2.37;;;;;;;16.28;100.00;99139.69;5027700;28;20637;-78
2022/07/01 06:14:02;;;;;;;2.83;2.60;;;;;;;16.48;100.00;99139.75;5026459;28;20198;-78
2022/07/01 06:16:31;;;;;;;2.83;2.37;;;;;;;16.65;100.00;99139.09;5029832;28;20645;-78
2022/07/01 06:19:00;;;;;;;3.07;2.77;;;;;;;16.71;100.00;99129.72;5030359;28;20282;-78
2022/07/01 06:21:28;;;;;;;3.00;2.70;;;;;;;16.83;100.00;99120.59;5030499;28;20205;-78
2022/07/01 06:23:56;;;;;;;3.60;2.70;;;;;;;16.84;100.00;99128.47;5030628;28;20668;-78
2022/07/01 06:26:26;;;;;;;3.10;2.80;;;;;;;16.89;100.00;99133.41;5029338;28;20714;-78
2022/07/01 06:28:55;;;;;;;3.07;2.77;;;;;;;16.82;100.00;99129.59;5041440;27;20216;-78
2022/07/01 06:31:24;;;;;;;3.67;2.93;;;;;;;16.92;100.00;99132.28;5034151;28;20206;-78
2022/07/01 06:33:53;;;;;;;3.90;2.60;;;;;;;16.84;100.00;99130.28;5027982;28;20283;-78
2022/07/01 06:36:21;;;;;;;5.47;3.00;;;;;;;16.79;100.00;99130.72;5026583;28;20190;-78
2022/07/01 06:38:49;;;;;;;2.87;2.63;;;;;;;16.83;100.00;99145.50;5030414;28;20653;-78
2022/07/01 06:41:29;;;;;;;3.10;2.80;;;;;;;16.50;100.00;99152.03;5033524;27;20197;-78
2022/07/01 06:44:00;;;;;;;3.53;2.70;;;;;;;16.74;100.00;99154.34;5030390;28;20196;-78
2022/07/01 06:46:30;;;;;;;3.07;2.77;;;;;;;16.66;100.00;99151.47;5028708;28;20208;-79
2022/07/01 06:49:00;;;;;;;2.77;2.50;;;;;;;16.31;100.00;99154.63;5035831;28;20282;-78
2022/07/01 06:51:28;;;;;;;2.50;2.30;;;;;;;15.85;100.00;99182.63;5033198;28;20197;-78
2022/07/01 06:53:58;;;;;;;4.13;1.93;;;;;;;15.62;100.00;99173.03;5025273;28;20242;-78
2022/07/01 06:56:27;;;;;;;3.03;1.73;;;;;;;15.93;100.00;99179.31;5024408;28;20216;-78
2022/07/01 06:58:57;;;;;;;1.90;1.70;;;;;;;15.63;100.00;99188.97;5033858;28;20209;-78
2022/07/01 07:01:26;;;;;;;2.30;2.10;;;;;;;15.86;100.00;99178.16;5029717;28;20202;-78
2022/07/01 07:03:54;;;;;;;2.53;1.53;;;;;;;15.61;100.00;99184.72;5032212;28;20207;-78
2022/07/01 07:06:22;;;;;;;2.27;1.37;;;;;;;15.92;100.00;99177.59;5022513;28;20675;-78
2022/07/01 07:08:51;;;;;;;4.10;1.60;;;;;;;16.12;100.00;99186.59;5029924;28;20280;-78
2022/07/01 07:11:19;;;;;;;2.07;1.40;;;;;;;16.34;100.00;99185.56;5028486;28;20304;-78
2022/07/01 07:13:48;;;;;;;1.40;1.20;;;;;;;16.36;100.00;99178.25;5029650;28;20246;-78
2022/07/01 07:16:20;;;;;;;2.23;1.20;;;;;;;16.50;100.00;99164.50;5020382;28;20212;-78
2022/07/01 07:18:49;;;;;;;1.83;1.10;;;;;;;16.62;100.00;99158.09;5029639;28;20197;-78
2022/07/01 07:21:18;;;;;;;1.20;1.10;;;;;;;17.01;100.00;99148.34;5029913;28;20197;-79
2022/07/01 07:23:46;;;;;;;1.40;1.17;;;;;;;17.29;100.00;99146.69;5022396;28;20285;-78
2022/07/01 07:26:14;;;;;;;1.63;1.17;;;;;;;17.55;100.00;99149.59;5028575;28;20198;-79
2022/07/01 07:28:43;;;;;;;1.60;1.20;;;;;;;17.51;100.00;99150.88;5044657;27;20193;-79
2022/07/01 07:31:11;;;;;;;2.30;1.00;;;;;;;17.38;100.00;99147.66;5028070;28;20309;-78
2022/07/01 07:33:41;;;;;;;1.87;1.13;;;;;;;17.41;100.00;99152.72;4991706;28;20278;-78
2022/07/01 07:36:09;;;;;;;2.23;1.00;;;;;;;17.42;100.00;99165.97;4994111;28;20210;-79
2022/07/01 07:38:38;;;;;;;1.73;0.80;;;;;;;17.58;100.00;99178.81;4994249;28;20238;-78
2022/07/01 07:41:06;;;;;;;2.70;1.07;;;;;;;17.44;100.00;99180.06;4990492;28;20199;-78
2022/07/01 07:43:36;;;;;;;1.50;1.00;;;;;;;17.53;100.00;99174.84;4991907;28;20210;-79
2022/07/01 07:46:04;;;;;;;2.10;1.00;;;;;;;17.40;100.00;99183.19;4994183;28;20191;-78
2022/07/01 07:48:33;;;;;;;2.20;1.03;;;;;;;17.35;100.00;99183.56;4991407;28;20284;-78
2022/07/01 07:51:03;;;;;;;1.40;0.93;;;;;;;17.50;100.00;99204.59;4995029;28;20304;-78
2022/07/01 07:53:31;;;;;;;1.47;1.13;;;;;;;16.70;100.00;99202.94;5030280;28;20269;-78
2022/07/01 07:56:00;;;;;;;1.43;0.93;;;;;;;17.07;100.00;99203.13;5031522;28;20201;-79
2022/07/01 07:58:28;;;;;;;1.30;0.90;;;;;;;17.12;100.00;99211.59;5031400;28;20198;-78
2022/07/01 08:00:57;;;;;;;2.23;1.00;;;;;;;17.25;100.00;99219.38;5028743;28;20202;-78
2022/07/01 08:03:25;;;;;;;1.93;1.03;;;;;;;17.22;100.00;99228.53;5030945;28;20209;-78
2022/07/01 08:05:53;;;;;;;1.30;1.10;;;;;;;17.04;100.00;99227.50;5032715;28;20599;-78
2022/07/01 08:08:23;;;;;;;2.77;1.00;;;;;;;17.13;100.00;99237.38;5032686;28;20250;-78
2022/07/01 08:10:52;;;;;;;1.93;1.07;;;;;;;16.88;100.00;99244.06;5031074;28;20214;-78
2022/07/01 08:13:21;;;;;;;1.30;1.10;;;;;;;17.20;100.00;99238.53;5032370;28;20198;-78
2022/07/01 08:15:49;;;;;;;3.47;1.00;;;;;;;16.70;100.00;99235.03;5033830;28;20250;-79
2022/07/01 08:18:17;;;;;;;1.93;1.10;;;;;;;16.91;100.00;99262.56;5032106;28;20533;-78
2022/07/01 08:20:45;;;;;;;4.40;1.20;;;;;;;16.45;100.00;99263.84;5034902;28;20212;-78
2022/07/01 08:23:14;;;;;;;3.30;1.40;;;;;;;16.83;100.00;99265.91;5038529;27;20202;-78
2022/07/01 08:25:44;;;;;;;2.73;1.20;;;;;;;17.00;100.00;99267.09;5031211;28;20213;-78
2022/07/01 08:28:12;;;;;;;2.23;1.13;;;;;;;16.72;100.00;99271.34;5028406;28;20202;-79
2022/07/01 08:30:40;;;;;;;3.63;1.00;;;;;;;16.95;100.00;99265.78;5031866;28;20217;-78
2022/07/01 08:33:08;;;;;;;1.73;1.37;;;;;;;16.91;100.00;99272.41;5027992;28;20258;-78
2022/07/01 08:35:37;;;;;;;4.60;1.20;;;;;;;16.86;100.00;99270.97;5038334;27;20205;-78
2022/07/01 08:38:05;;;;;;;1.83;1.20;;;;;;;16.88;100.00;99270.81;5028338;28;20198;-78
2022/07/01 08:40:34;;;;;;;2.23;1.10;;;;;;;16.85;100.00;99268.44;5029879;28;20280;-77
2022/07/01 08:43:05;;;;;;;2.27;1.20;;;;;;;16.75;100.00;99264.88;5034370;28;20255;-76
2022/07/01 08:45:35;;;;;;;2.23;1.03;;;;;;;16.85;100.00;99260.41;5031929;28;20228;-77
2022/07/01 08:48:05;;;;;;;1.83;1.40;;;;;;;16.83;100.00;99263.22;5031659;28;20225;-77
2022/07/01 08:50:35;;;;;;;7.43;1.50;;;;;;;16.72;100.00;99279.38;5031831;28;20277;-77
2022/07/01 08:53:04;;;;;;;2.57;1.10;;;;;;;16.56;100.00;99284.31;5034319;28;20198;-77
2022/07/01 08:56:40;;;;;;;2.27;1.30;;;;;;;16.27;100.00;99271.63;5029369;28;20198;-77
2022/07/01 08:58:24;;;;;;;3.10;1.57;;;;;;;16.17;100.00;99277.91;5031650;28;20744;-77
2022/07/01 09:00:53;;;;;;;3.67;1.53;;;;;;;16.42;100.00;99264.13;5028256;28;20201;-77
2022/07/01 09:03:27;;;;;;;1.67;1.40;;;;;;;16.48;100.00;99254.72;5029775;28;20201;-77
2022/07/01 09:05:55;;;;;;;2.60;1.50;;;;;;;16.54;100.00;99246.19;5032355;28;20277;-78
2022/07/01 09:08:28;;;;;;;2.90;1.50;;;;;;;16.65;100.00;99237.22;5028813;28;20194;-77
2022/07/01 09:10:56;;;;;;;3.80;1.60;;;;;;;16.91;100.00;99237.63;5029786;28;20221;-77
2022/07/01 09:13:26;;;;;;;5.17;1.73;;;;;;;17.00;100.00;99231.44;5031560;28;20280;-77
2022/07/01 09:15:57;;;;;;;1.80;1.40;;;;;;;17.21;100.00;99231.34;5031489;28;20233;-78
2022/07/01 09:18:25;;;;;;;5.23;2.03;;;;;;;17.24;100.00;99234.59;5031464;28;20198;-77
2022/07/01 09:20:54;;;;;;;3.40;1.50;;;;;;;17.28;100.00;99244.06;5037980;28;20209;-78
2022/07/01 09:23:22;;;;;;;3.10;1.50;;;;;;;17.26;100.00;99253.19;5031470;28;20220;-78
2022/07/01 09:25:51;;;;;;;3.80;1.93;;;;;;;16.70;100.00;99261.78;5030452;28;20695;-78
2022/07/01 09:28:25;;;;;;;3.30;1.70;;;;;;;16.81;100.00;99261.66;5031058;28;20192;-78
2022/07/01 09:30:57;;;;;;;2.90;1.60;;;;;;;16.96;100.00;99262.97;5029796;28;20217;-78
2022/07/01 09:33:27;;;;;;;4.43;1.70;;;;;;;17.20;100.00;99267.97;5031005;28;20281;-77
2022/07/01 09:35:56;;;;;;;2.13;1.53;;;;;;;17.29;100.00;99261.81;5031282;28;20252;-77
2022/07/01 09:38:26;;;;;;;2.07;1.50;;;;;;;16.72;100.00;99257.13;5031063;28;20198;-78
2022/07/01 09:41:02;;;;;;;5.13;1.80;;;;;;;16.51;100.00;99263.34;5029921;28;20212;-77
2022/07/01 09:43:33;;;;;;;3.83;1.70;;;;;;;16.87;100.00;99259.28;5024633;28;20206;-77
2022/07/01 09:46:04;;;;;;;1.70;1.37;;;;;;;17.09;100.00;99268.09;5030897;28;20666;-77
2022/07/01 09:48:48;;;;;;;2.40;1.60;;;;;;;17.17;100.00;99278.94;5030558;28;20231;-77
2022/07/01 09:51:17;;;;;;;2.17;1.50;;;;;;;16.95;100.00;99287.19;5030964;28;20684;-77
2022/07/01 09:53:45;;;;;;;4.10;1.67;;;;;;;17.23;100.00;99293.63;5030970;28;20194;-77
2022/07/01 09:56:13;;;;;;;3.17;1.43;;;;;;;17.05;100.00;99290.75;5029249;28;20258;-77
2022/07/01 09:58:42;;;;;;;2.77;1.57;;;;;;;16.23;100.00;99304.13;5030453;28;20201;-77
2022/07/01 10:01:16;;;;;;;2.53;1.80;;;;;;;16.53;100.00;99314.84;5030447;28;20202;-77
2022/07/01 10:03:44;;;;;;;1.87;1.50;;;;;;;16.38;100.00;99315.31;5029361;28;20290;-77
2022/07/01 10:06:41;;;;;;;3.27;1.70;;;;;;;16.67;100.00;99318.16;5031279;28;20198;-77
2022/07/01 10:09:21;;;;;;;3.60;1.47;;;;;;;16.07;100.00;99333.09;5035563;28;20213;-78
2022/07/01 10:12:20;;;;;;;4.23;1.90;;;;;;;15.85;100.00;99334.91;5033261;28;20221;-77
2022/07/01 10:14:49;;;;;;;3.73;1.73;;;;;;;15.88;100.00;99329.28;5031931;28;20201;-77
2022/07/01 10:17:29;;;;;;;3.47;2.10;;;;;;;16.23;100.00;99320.16;5024795;28;20249;-78
2022/07/01 10:20:06;;;;;;;4.27;1.90;;;;;;;16.51;100.00;99307.94;5030483;28;20625;-77
2022/07/01 10:22:36;;;;;;;3.30;1.73;;;;;;;16.45;100.00;99303.13;5030642;28;20207;-78
2022/07/01 10:25:34;;;;;;;1.70;1.60;;;;;;;16.72;100.00;99292.75;5029500;28;20194;-77
2022/07/01 10:28:28;;;;;;;2.53;1.63;;;;;;;16.98;100.00;99278.88;5027998;28;20229;-78
2022/07/01 10:31:02;;;;;;;2.30;1.60;;;;;;;17.05;100.00;99291.59;5037894;28;20201;-78
2022/07/01 10:33:39;;;;;;;3.83;1.90;;;;;;;16.60;100.00;99321.38;5029794;28;20202;-78
2022/07/01 10:36:14;;;;;;;4.33;1.90;;;;;;;16.38;100.00;99342.03;5030332;28;20675;-78
2022/07/01 10:39:13;;;;;;;2.93;1.73;;;;;;;16.76;100.00;99328.94;5027966;28;20209;-78
2022/07/01 10:41:43;;;;;;;3.13;1.87;;;;;;;16.60;100.00;99310.69;5031596;28;20251;-78
2022/07/01 10:44:12;;;;;;;4.30;1.67;;;;;;;17.07;100.00;99311.03;5028821;28;20198;-78
2022/07/01 10:46:46;;;;;;;3.03;1.90;;;;;;;16.83;100.00;99323.91;5027287;28;20209;-77
2022/07/01 10:49:18;;;;;;;4.87;1.77;;;;;;;16.79;100.00;99341.19;5029923;28;20229;-77
2022/07/01 10:51:51;;;;;;;2.77;1.63;;;;;;;16.70;100.00;99336.66;5029722;28;20229;-78
2022/07/01 10:54:48;;;;;;;3.13;1.50;;;;;;;17.15;100.00;99321.06;5022035;28;20194;-78
2022/07/01 10:57:38;;;;;;;4.57;1.77;;;;;;;17.19;100.00;99322.50;5027239;28;20231;-78
2022/07/01 11:00:30;;;;;;;4.17;1.60;;;;;;;17.45;100.00;99326.34;5024710;28;20205;-78
2022/07/01 11:03:07;;;;;;;2.47;1.43;;;;;;;18.02;100.00;99335.47;5029132;28;20198;-78
2022/07/01 11:05:38;;;;;;;4.30;1.53;;;;;;;18.18;100.00;99328.72;5029670;28;20416;-78
2022/07/01 11:08:07;;;;;;;3.83;1.83;;;;;;;18.15;100.00;99334.38;5029683;28;20270;-79
2022/07/01 11:10:40;;;;;;;3.43;1.90;;;;;;;17.73;100.00;99339.97;5028408;28;20194;-78
2022/07/01 11:13:09;;;;;;;4.23;1.73;;;;;;;18.21;100.00;99329.25;5027084;28;20680;-78
2022/07/01 11:15:37;;;;;;;3.60;1.33;;;;;;;17.97;100.00;99339.59;5033994;28;20190;-79
2022/07/01 11:18:06;;;;;;;2.87;1.63;;;;;;;17.20;100.00;99347.44;5030808;28;20640;-78
2022/07/01 11:20:34;;;;;;;4.60;1.40;;;;;;;17.72;100.00;99335.63;5029729;28;20202;-78
2022/07/01 11:23:04;;;;;;;3.53;1.80;;;;;;;18.12;100.00;99329.28;5024723;28;20644;-78
2022/07/01 11:25:32;;;;;;;1.93;1.47;;;;;;;18.34;100.00;99336.19;5029887;28;20206;-78
2022/07/01 11:28:01;;;;;;;2.10;1.50;;;;;;;18.47;100.00;99329.53;5029675;28;20281;-78
2022/07/01 11:30:29;;;;;;;4.60;1.70;;;;;;;18.35;100.00;99330.69;5025643;28;20198;-78
2022/07/01 11:32:59;;;;;;;3.63;1.60;;;;;;;18.18;100.00;99323.34;5029375;28;20387;-78
2022/07/01 11:41:06;;;;;;;2.00;1.53;;;;;;;18.59;100.00;99316.78;5028357;28;20212;-78
2022/07/01 11:43:37;;;;;;;2.70;1.43;;;;;;;18.96;100.00;99310.63;5027382;28;20201;-78
2022/07/01 11:46:07;;;;;;;3.40;1.47;;;;;;;18.82;100.00;99301.22;5029880;28;20304;-78
2022/07/01 11:48:40;;;;;;;2.70;1.53;;;;;;;19.65;100.00;99294.84;5029367;28;20262;-78
2022/07/01 11:51:12;;;;;;;4.60;1.40;;;;;;;19.49;100.00;99296.47;5029323;28;20747;-78
2022/07/01 11:53:45;;;;;;;4.63;1.40;;;;;;;19.40;100.00;99295.56;5024991;28;20270;-77
2022/07/01 11:56:14;;;;;;;5.37;1.33;;;;;;;20.04;100.00;99291.00;5028310;28;20221;-78